
<gpx xmlns="http://www.topografix.com/GPX/1/1" xmlns:gpxx="http://www.garmin.com/xmlschemas/GpxExtensions/v3" xmlns:xsi="http://www.w3.org/2001/XMLSchema-instance" version="1.1" creator="Adze - https://getadze.com/" xsi:schemaLocation="http://www.topografix.com/GPX/1/1 http://www.topografix.com/GPX/1/1/gpx.xsd http://www.garmin.com/xmlschemas/GpxExtensions/v3 http://www.garmin.com/xmlschemas/GpxExtensionsv3.xsd">
    <metadata>
        <name>Untitled Document</name>
        <link href="http://www.garmin.com"></link>
        <time>2018-02-27T04:41:44.975Z</time>
    </metadata>
    <wpt lon="99.625682" lat="13.459896">
        <ele>92.000000</ele>
        <name>Dragon Hills Hotel</name>
        <cmt>24-AUG-12 15:32:52</cmt>
        <desc>24-AUG-12 15:32:52</desc>
        <sym>Lodging</sym>
        <extensions>
            <gpxx:WaypointExtension xmlns:gpxx="http://www.garmin.com/xmlschemas/GpxExtensions/v3">
                <gpxx:DisplayMode>SymbolAndName</gpxx:DisplayMode>
            </gpxx:WaypointExtension>
        </extensions>
    </wpt>
    <trk>
        <name>Sunday</name>
        <extensions>
            <gpxx:TrackExtension xmlns:gpxx="http://www.garmin.com/xmlschemas/GpxExtensions/v3">
                <gpxx:DisplayColor>Green</gpxx:DisplayColor>
            </gpxx:TrackExtension>
        </extensions>
        <trkseg>
            <trkpt lon="99.625731" lat="13.460119">
                <ele>83.771973</ele>
                <time>2012-08-26T03:03:42Z</time>
            </trkpt>
            <trkpt lon="99.625720" lat="13.460159">
                <ele>85.694580</ele>
                <time>2012-08-26T03:04:56Z</time>
            </trkpt>
            <trkpt lon="99.625508" lat="13.460290">
                <ele>83.291382</ele>
                <time>2012-08-26T03:06:37Z</time>
            </trkpt>
            <trkpt lon="99.625433" lat="13.460235">
                <ele>83.771973</ele>
                <time>2012-08-26T03:06:43Z</time>
            </trkpt>
            <trkpt lon="99.626032" lat="13.458385">
                <ele>79.446045</ele>
                <time>2012-08-26T03:07:38Z</time>
            </trkpt>
            <trkpt lon="99.625828" lat="13.458056">
                <ele>79.446045</ele>
                <time>2012-08-26T03:07:47Z</time>
            </trkpt>
            <trkpt lon="99.625256" lat="13.457903">
                <ele>79.926636</ele>
                <time>2012-08-26T03:07:58Z</time>
            </trkpt>
            <trkpt lon="99.625110" lat="13.457660">
                <ele>79.926636</ele>
                <time>2012-08-26T03:08:03Z</time>
            </trkpt>
            <trkpt lon="99.624781" lat="13.454214">
                <ele>82.810791</ele>
                <time>2012-08-26T03:09:07Z</time>
            </trkpt>
            <trkpt lon="99.624931" lat="13.453322">
                <ele>87.136597</ele>
                <time>2012-08-26T03:09:27Z</time>
            </trkpt>
            <trkpt lon="99.625090" lat="13.452304">
                <ele>88.578735</ele>
                <time>2012-08-26T03:09:52Z</time>
            </trkpt>
            <trkpt lon="99.625215" lat="13.451359">
                <ele>89.059326</ele>
                <time>2012-08-26T03:10:16Z</time>
            </trkpt>
            <trkpt lon="99.625079" lat="13.450866">
                <ele>90.501343</ele>
                <time>2012-08-26T03:10:31Z</time>
            </trkpt>
            <trkpt lon="99.623574" lat="13.450332">
                <ele>90.020630</ele>
                <time>2012-08-26T03:11:09Z</time>
            </trkpt>
            <trkpt lon="99.620583" lat="13.449829">
                <ele>90.020630</ele>
                <time>2012-08-26T03:12:11Z</time>
            </trkpt>
            <trkpt lon="99.619980" lat="13.449412">
                <ele>90.020630</ele>
                <time>2012-08-26T03:12:36Z</time>
            </trkpt>
            <trkpt lon="99.619717" lat="13.449169">
                <ele>91.462524</ele>
                <time>2012-08-26T03:12:44Z</time>
            </trkpt>
            <trkpt lon="99.619305" lat="13.448322">
                <ele>92.423950</ele>
                <time>2012-08-26T03:13:03Z</time>
            </trkpt>
            <trkpt lon="99.618040" lat="13.446226">
                <ele>91.943237</ele>
                <time>2012-08-26T03:13:52Z</time>
            </trkpt>
            <trkpt lon="99.616705" lat="13.445777">
                <ele>94.346558</ele>
                <time>2012-08-26T03:14:25Z</time>
            </trkpt>
            <trkpt lon="99.618090" lat="13.445501">
                <ele>95.788452</ele>
                <time>2012-08-26T03:15:27Z</time>
            </trkpt>
            <trkpt lon="99.617467" lat="13.445503">
                <ele>96.749878</ele>
                <time>2012-08-26T03:15:55Z</time>
            </trkpt>
            <trkpt lon="99.616078" lat="13.445791">
                <ele>95.788452</ele>
                <time>2012-08-26T03:16:29Z</time>
            </trkpt>
            <trkpt lon="99.615966" lat="13.445656">
                <ele>96.269287</ele>
                <time>2012-08-26T03:16:40Z</time>
            </trkpt>
            <trkpt lon="99.616095" lat="13.442720">
                <ele>102.037109</ele>
                <time>2012-08-26T03:18:41Z</time>
            </trkpt>
            <trkpt lon="99.615499" lat="13.442464">
                <ele>102.037109</ele>
                <time>2012-08-26T03:19:01Z</time>
            </trkpt>
            <trkpt lon="99.615100" lat="13.442496">
                <ele>100.595093</ele>
                <time>2012-08-26T03:19:14Z</time>
            </trkpt>
            <trkpt lon="99.614912" lat="13.442305">
                <ele>101.556397</ele>
                <time>2012-08-26T03:19:22Z</time>
            </trkpt>
            <trkpt lon="99.614784" lat="13.441655">
                <ele>102.998291</ele>
                <time>2012-08-26T03:19:48Z</time>
            </trkpt>
            <trkpt lon="99.613379" lat="13.440756">
                <ele>107.324341</ele>
                <time>2012-08-26T03:20:41Z</time>
            </trkpt>
            <trkpt lon="99.613335" lat="13.440292">
                <ele>110.208252</ele>
                <time>2012-08-26T03:20:56Z</time>
            </trkpt>
            <trkpt lon="99.613287" lat="13.439814">
                <ele>109.727661</ele>
                <time>2012-08-26T03:21:12Z</time>
            </trkpt>
            <trkpt lon="99.613339" lat="13.439333">
                <ele>110.208252</ele>
                <time>2012-08-26T03:21:28Z</time>
            </trkpt>
            <trkpt lon="99.613860" lat="13.439183">
                <ele>108.285645</ele>
                <time>2012-08-26T03:21:49Z</time>
            </trkpt>
            <trkpt lon="99.614629" lat="13.439336">
                <ele>109.727661</ele>
                <time>2012-08-26T03:22:09Z</time>
            </trkpt>
            <trkpt lon="99.615856" lat="13.440049">
                <ele>107.324341</ele>
                <time>2012-08-26T03:22:46Z</time>
            </trkpt>
            <trkpt lon="99.615972" lat="13.439567">
                <ele>108.285645</ele>
                <time>2012-08-26T03:23:03Z</time>
            </trkpt>
            <trkpt lon="99.615536" lat="13.438868">
                <ele>103.479004</ele>
                <time>2012-08-26T03:23:34Z</time>
            </trkpt>
            <trkpt lon="99.615473" lat="13.437666">
                <ele>107.805054</ele>
                <time>2012-08-26T03:24:18Z</time>
            </trkpt>
            <trkpt lon="99.614968" lat="13.437023">
                <ele>110.208252</ele>
                <time>2012-08-26T03:24:46Z</time>
            </trkpt>
            <trkpt lon="99.614781" lat="13.436270">
                <ele>114.053589</ele>
                <time>2012-08-26T03:25:15Z</time>
            </trkpt>
            <trkpt lon="99.614152" lat="13.434714">
                <ele>115.976196</ele>
                <time>2012-08-26T03:26:37Z</time>
            </trkpt>
            <trkpt lon="99.613743" lat="13.434254">
                <ele>117.898804</ele>
                <time>2012-08-26T03:26:59Z</time>
            </trkpt>
            <trkpt lon="99.613423" lat="13.433426">
                <ele>114.053589</ele>
                <time>2012-08-26T03:27:27Z</time>
            </trkpt>
            <trkpt lon="99.613267" lat="13.433210">
                <ele>115.014893</ele>
                <time>2012-08-26T03:27:35Z</time>
            </trkpt>
            <trkpt lon="99.612997" lat="13.433187">
                <ele>115.976196</ele>
                <time>2012-08-26T03:27:47Z</time>
            </trkpt>
            <trkpt lon="99.612775" lat="13.432751">
                <ele>116.937500</ele>
                <time>2012-08-26T03:28:00Z</time>
            </trkpt>
            <trkpt lon="99.612220" lat="13.431788">
                <ele>117.418213</ele>
                <time>2012-08-26T03:28:39Z</time>
            </trkpt>
            <trkpt lon="99.612041" lat="13.431127">
                <ele>122.224731</ele>
                <time>2012-08-26T03:29:06Z</time>
            </trkpt>
            <trkpt lon="99.611609" lat="13.430138">
                <ele>123.666748</ele>
                <time>2012-08-26T03:29:51Z</time>
            </trkpt>
            <trkpt lon="99.611733" lat="13.429421">
                <ele>126.550659</ele>
                <time>2012-08-26T03:30:20Z</time>
            </trkpt>
            <trkpt lon="99.611234" lat="13.428935">
                <ele>128.473389</ele>
                <time>2012-08-26T03:30:48Z</time>
            </trkpt>
            <trkpt lon="99.610992" lat="13.427517">
                <ele>131.837891</ele>
                <time>2012-08-26T03:31:37Z</time>
            </trkpt>
            <trkpt lon="99.610082" lat="13.426809">
                <ele>134.721924</ele>
                <time>2012-08-26T03:32:11Z</time>
            </trkpt>
            <trkpt lon="99.609841" lat="13.426406">
                <ele>134.721924</ele>
                <time>2012-08-26T03:32:26Z</time>
            </trkpt>
            <trkpt lon="99.610006" lat="13.425486">
                <ele>137.125244</ele>
                <time>2012-08-26T03:32:54Z</time>
            </trkpt>
            <trkpt lon="99.609525" lat="13.424597">
                <ele>140.970459</ele>
                <time>2012-08-26T03:33:28Z</time>
            </trkpt>
            <trkpt lon="99.609679" lat="13.423463">
                <ele>143.854370</ele>
                <time>2012-08-26T03:33:59Z</time>
            </trkpt>
            <trkpt lon="99.609440" lat="13.422849">
                <ele>144.815796</ele>
                <time>2012-08-26T03:34:19Z</time>
            </trkpt>
            <trkpt lon="99.608664" lat="13.421849">
                <ele>146.738403</ele>
                <time>2012-08-26T03:35:00Z</time>
            </trkpt>
            <trkpt lon="99.607757" lat="13.421876">
                <ele>150.103027</ele>
                <time>2012-08-26T03:35:31Z</time>
            </trkpt>
            <trkpt lon="99.607284" lat="13.421862">
                <ele>149.141602</ele>
                <time>2012-08-26T03:35:51Z</time>
            </trkpt>
            <trkpt lon="99.607358" lat="13.420147">
                <ele>157.793579</ele>
                <time>2012-08-26T03:37:35Z</time>
            </trkpt>
            <trkpt lon="99.607429" lat="13.420351">
                <ele>155.390259</ele>
                <time>2012-08-26T03:37:49Z</time>
            </trkpt>
            <trkpt lon="99.608305" lat="13.420458">
                <ele>156.351562</ele>
                <time>2012-08-26T03:38:20Z</time>
            </trkpt>
            <trkpt lon="99.608423" lat="13.420223">
                <ele>156.351562</ele>
                <time>2012-08-26T03:38:28Z</time>
            </trkpt>
            <trkpt lon="99.608558" lat="13.419722">
                <ele>155.390259</ele>
                <time>2012-08-26T03:38:44Z</time>
            </trkpt>
            <trkpt lon="99.609179" lat="13.419795">
                <ele>150.103027</ele>
                <time>2012-08-26T03:39:06Z</time>
            </trkpt>
            <trkpt lon="99.609365" lat="13.420543">
                <ele>147.218994</ele>
                <time>2012-08-26T03:39:30Z</time>
            </trkpt>
            <trkpt lon="99.609668" lat="13.420654">
                <ele>147.218994</ele>
                <time>2012-08-26T03:39:44Z</time>
            </trkpt>
            <trkpt lon="99.610249" lat="13.420324">
                <ele>148.661011</ele>
                <time>2012-08-26T03:40:11Z</time>
            </trkpt>
            <trkpt lon="99.611130" lat="13.420132">
                <ele>155.870972</ele>
                <time>2012-08-26T03:40:59Z</time>
            </trkpt>
            <trkpt lon="99.612071" lat="13.419197">
                <ele>157.312866</ele>
                <time>2012-08-26T03:41:59Z</time>
            </trkpt>
            <trkpt lon="99.613007" lat="13.418996">
                <ele>162.119507</ele>
                <time>2012-08-26T03:42:32Z</time>
            </trkpt>
            <trkpt lon="99.613428" lat="13.418695">
                <ele>163.080811</ele>
                <time>2012-08-26T03:42:48Z</time>
            </trkpt>
            <trkpt lon="99.614486" lat="13.417945">
                <ele>155.870972</ele>
                <time>2012-08-26T03:43:21Z</time>
            </trkpt>
            <trkpt lon="99.614817" lat="13.417416">
                <ele>152.986939</ele>
                <time>2012-08-26T03:43:35Z</time>
            </trkpt>
            <trkpt lon="99.615667" lat="13.416641">
                <ele>149.622314</ele>
                <time>2012-08-26T03:44:00Z</time>
            </trkpt>
            <trkpt lon="99.616422" lat="13.416294">
                <ele>143.854370</ele>
                <time>2012-08-26T03:44:18Z</time>
            </trkpt>
            <trkpt lon="99.616806" lat="13.416200">
                <ele>139.528442</ele>
                <time>2012-08-26T03:44:28Z</time>
            </trkpt>
            <trkpt lon="99.617766" lat="13.416571">
                <ele>140.489868</ele>
                <time>2012-08-26T03:44:57Z</time>
            </trkpt>
            <trkpt lon="99.618756" lat="13.416423">
                <ele>142.412476</ele>
                <time>2012-08-26T03:45:35Z</time>
            </trkpt>
            <trkpt lon="99.620536" lat="13.416006">
                <ele>138.567261</ele>
                <time>2012-08-26T03:46:28Z</time>
            </trkpt>
            <trkpt lon="99.621085" lat="13.416259">
                <ele>140.970459</ele>
                <time>2012-08-26T03:46:48Z</time>
            </trkpt>
            <trkpt lon="99.621779" lat="13.416876">
                <ele>137.605835</ele>
                <time>2012-08-26T03:47:20Z</time>
            </trkpt>
            <trkpt lon="99.622445" lat="13.417087">
                <ele>134.241211</ele>
                <time>2012-08-26T03:47:52Z</time>
            </trkpt>
            <trkpt lon="99.622680" lat="13.416489">
                <ele>131.357300</ele>
                <time>2012-08-26T03:48:17Z</time>
            </trkpt>
            <trkpt lon="99.623610" lat="13.416308">
                <ele>131.837891</ele>
                <time>2012-08-26T03:48:46Z</time>
            </trkpt>
            <trkpt lon="99.623849" lat="13.415985">
                <ele>131.837891</ele>
                <time>2012-08-26T03:48:59Z</time>
            </trkpt>
            <trkpt lon="99.624006" lat="13.415665">
                <ele>130.876709</ele>
                <time>2012-08-26T03:49:13Z</time>
            </trkpt>
            <trkpt lon="99.624676" lat="13.415379">
                <ele>126.550659</ele>
                <time>2012-08-26T03:49:44Z</time>
            </trkpt>
            <trkpt lon="99.626614" lat="13.415461">
                <ele>123.666748</ele>
                <time>2012-08-26T03:50:51Z</time>
            </trkpt>
            <trkpt lon="99.626921" lat="13.415506">
                <ele>121.744141</ele>
                <time>2012-08-26T03:51:23Z</time>
            </trkpt>
            <trkpt lon="99.626709" lat="13.415461">
                <ele>118.860107</ele>
                <time>2012-08-26T03:51:35Z</time>
            </trkpt>
            <trkpt lon="99.629957" lat="13.415722">
                <ele>113.092285</ele>
                <time>2012-08-26T03:52:51Z</time>
            </trkpt>
            <trkpt lon="99.633644" lat="13.416018">
                <ele>102.037109</ele>
                <time>2012-08-26T03:54:01Z</time>
            </trkpt>
            <trkpt lon="99.635176" lat="13.416350">
                <ele>100.595093</ele>
                <time>2012-08-26T03:54:28Z</time>
            </trkpt>
            <trkpt lon="99.635251" lat="13.415517">
                <ele>99.153076</ele>
                <time>2012-08-26T04:09:13Z</time>
            </trkpt>
            <trkpt lon="99.635484" lat="13.414817">
                <ele>97.711182</ele>
                <time>2012-08-26T04:09:31Z</time>
            </trkpt>
            <trkpt lon="99.635706" lat="13.414037">
                <ele>94.346558</ele>
                <time>2012-08-26T04:09:58Z</time>
            </trkpt>
            <trkpt lon="99.636306" lat="13.413148">
                <ele>97.711182</ele>
                <time>2012-08-26T04:10:39Z</time>
            </trkpt>
            <trkpt lon="99.636295" lat="13.413098">
                <ele>97.230469</ele>
                <time>2012-08-26T04:10:41Z</time>
            </trkpt>
            <trkpt lon="99.634771" lat="13.412671">
                <ele>101.556397</ele>
                <time>2012-08-26T04:11:30Z</time>
            </trkpt>
            <trkpt lon="99.634097" lat="13.412076">
                <ele>104.440430</ele>
                <time>2012-08-26T04:11:57Z</time>
            </trkpt>
            <trkpt lon="99.633671" lat="13.411892">
                <ele>104.440430</ele>
                <time>2012-08-26T04:12:11Z</time>
            </trkpt>
            <trkpt lon="99.633340" lat="13.411384">
                <ele>104.921020</ele>
                <time>2012-08-26T04:12:29Z</time>
            </trkpt>
            <trkpt lon="99.634022" lat="13.411316">
                <ele>105.401733</ele>
                <time>2012-08-26T04:12:48Z</time>
            </trkpt>
            <trkpt lon="99.634847" lat="13.411407">
                <ele>102.037109</ele>
                <time>2012-08-26T04:13:07Z</time>
            </trkpt>
            <trkpt lon="99.635204" lat="13.411442">
                <ele>98.191895</ele>
                <time>2012-08-26T04:13:15Z</time>
            </trkpt>
            <trkpt lon="99.636253" lat="13.411308">
                <ele>96.269287</ele>
                <time>2012-08-26T04:13:42Z</time>
            </trkpt>
            <trkpt lon="99.636297" lat="13.411304">
                <ele>95.788452</ele>
                <time>2012-08-26T04:13:43Z</time>
            </trkpt>
            <trkpt lon="99.637048" lat="13.411103">
                <ele>95.788452</ele>
                <time>2012-08-26T04:14:02Z</time>
            </trkpt>
            <trkpt lon="99.637647" lat="13.410924">
                <ele>92.423950</ele>
                <time>2012-08-26T04:14:17Z</time>
            </trkpt>
            <trkpt lon="99.638780" lat="13.410908">
                <ele>90.020630</ele>
                <time>2012-08-26T04:14:48Z</time>
            </trkpt>
            <trkpt lon="99.639742" lat="13.410619">
                <ele>97.711182</ele>
                <time>2012-08-26T04:15:31Z</time>
            </trkpt>
            <trkpt lon="99.641164" lat="13.410258">
                <ele>102.517700</ele>
                <time>2012-08-26T04:16:22Z</time>
            </trkpt>
            <trkpt lon="99.641640" lat="13.410039">
                <ele>102.037109</ele>
                <time>2012-08-26T04:16:34Z</time>
            </trkpt>
            <trkpt lon="99.641936" lat="13.409751">
                <ele>102.037109</ele>
                <time>2012-08-26T04:16:46Z</time>
            </trkpt>
            <trkpt lon="99.641929" lat="13.409438">
                <ele>101.556397</ele>
                <time>2012-08-26T04:16:55Z</time>
            </trkpt>
            <trkpt lon="99.642054" lat="13.409378">
                <ele>100.595093</ele>
                <time>2012-08-26T04:16:59Z</time>
            </trkpt>
            <trkpt lon="99.646734" lat="13.408377">
                <ele>93.865845</ele>
                <time>2012-08-26T04:18:30Z</time>
            </trkpt>
            <trkpt lon="99.648166" lat="13.407190">
                <ele>91.462524</ele>
                <time>2012-08-26T04:19:18Z</time>
            </trkpt>
            <trkpt lon="99.649360" lat="13.406852">
                <ele>94.346558</ele>
                <time>2012-08-26T04:19:46Z</time>
            </trkpt>
            <trkpt lon="99.650055" lat="13.406413">
                <ele>92.423950</ele>
                <time>2012-08-26T04:20:04Z</time>
            </trkpt>
            <trkpt lon="99.650572" lat="13.406353">
                <ele>93.385132</ele>
                <time>2012-08-26T04:20:19Z</time>
            </trkpt>
            <trkpt lon="99.651207" lat="13.406484">
                <ele>92.904541</ele>
                <time>2012-08-26T04:20:35Z</time>
            </trkpt>
            <trkpt lon="99.651551" lat="13.406851">
                <ele>92.423950</ele>
                <time>2012-08-26T04:20:46Z</time>
            </trkpt>
            <trkpt lon="99.651995" lat="13.407012">
                <ele>93.385132</ele>
                <time>2012-08-26T04:21:00Z</time>
            </trkpt>
            <trkpt lon="99.652434" lat="13.407141">
                <ele>90.501343</ele>
                <time>2012-08-26T04:21:14Z</time>
            </trkpt>
            <trkpt lon="99.652628" lat="13.407402">
                <ele>89.539917</ele>
                <time>2012-08-26T04:21:21Z</time>
            </trkpt>
            <trkpt lon="99.652817" lat="13.408287">
                <ele>93.865845</ele>
                <time>2012-08-26T04:21:52Z</time>
            </trkpt>
            <trkpt lon="99.653511" lat="13.408936">
                <ele>91.462524</ele>
                <time>2012-08-26T04:22:15Z</time>
            </trkpt>
            <trkpt lon="99.654361" lat="13.409358">
                <ele>90.501343</ele>
                <time>2012-08-26T04:22:34Z</time>
            </trkpt>
            <trkpt lon="99.654647" lat="13.409536">
                <ele>89.539917</ele>
                <time>2012-08-26T04:22:40Z</time>
            </trkpt>
            <trkpt lon="99.655091" lat="13.410200">
                <ele>87.136597</ele>
                <time>2012-08-26T04:22:54Z</time>
            </trkpt>
            <trkpt lon="99.655638" lat="13.411421">
                <ele>82.810791</ele>
                <time>2012-08-26T04:23:15Z</time>
            </trkpt>
            <trkpt lon="99.655848" lat="13.412511">
                <ele>78.004028</ele>
                <time>2012-08-26T04:23:32Z</time>
            </trkpt>
            <trkpt lon="99.656452" lat="13.413498">
                <ele>77.042847</ele>
                <time>2012-08-26T04:23:54Z</time>
            </trkpt>
            <trkpt lon="99.656663" lat="13.413626">
                <ele>77.042847</ele>
                <time>2012-08-26T04:24:04Z</time>
            </trkpt>
            <trkpt lon="99.656751" lat="13.414413">
                <ele>76.081421</ele>
                <time>2012-08-26T04:25:06Z</time>
            </trkpt>
            <trkpt lon="99.655732" lat="13.414392">
                <ele>80.888184</ele>
                <time>2012-08-26T04:25:45Z</time>
            </trkpt>
            <trkpt lon="99.655373" lat="13.415673">
                <ele>84.733398</ele>
                <time>2012-08-26T04:26:44Z</time>
            </trkpt>
            <trkpt lon="99.655016" lat="13.416470">
                <ele>86.656006</ele>
                <time>2012-08-26T04:27:18Z</time>
            </trkpt>
            <trkpt lon="99.654966" lat="13.416856">
                <ele>85.213989</ele>
                <time>2012-08-26T04:27:30Z</time>
            </trkpt>
            <trkpt lon="99.654713" lat="13.417279">
                <ele>83.771973</ele>
                <time>2012-08-26T04:27:44Z</time>
            </trkpt>
            <trkpt lon="99.654590" lat="13.417533">
                <ele>82.810791</ele>
                <time>2012-08-26T04:27:51Z</time>
            </trkpt>
            <trkpt lon="99.654029" lat="13.418055">
                <ele>79.926636</ele>
                <time>2012-08-26T04:28:09Z</time>
            </trkpt>
            <trkpt lon="99.653166" lat="13.418121">
                <ele>80.407471</ele>
                <time>2012-08-26T04:28:34Z</time>
            </trkpt>
            <trkpt lon="99.652626" lat="13.418156">
                <ele>79.446045</ele>
                <time>2012-08-26T04:28:48Z</time>
            </trkpt>
            <trkpt lon="99.651559" lat="13.418320">
                <ele>75.120239</ele>
                <time>2012-08-26T04:29:24Z</time>
            </trkpt>
            <trkpt lon="99.651329" lat="13.418495">
                <ele>75.120239</ele>
                <time>2012-08-26T04:29:38Z</time>
            </trkpt>
            <trkpt lon="99.650366" lat="13.418397">
                <ele>73.197632</ele>
                <time>2012-08-26T04:30:06Z</time>
            </trkpt>
            <trkpt lon="99.648957" lat="13.417994">
                <ele>74.639526</ele>
                <time>2012-08-26T04:30:45Z</time>
            </trkpt>
            <trkpt lon="99.647016" lat="13.418030">
                <ele>74.158813</ele>
                <time>2012-08-26T04:31:36Z</time>
            </trkpt>
            <trkpt lon="99.645980" lat="13.417503">
                <ele>80.407471</ele>
                <time>2012-08-26T04:32:39Z</time>
            </trkpt>
            <trkpt lon="99.643885" lat="13.417302">
                <ele>82.810791</ele>
                <time>2012-08-26T04:34:03Z</time>
            </trkpt>
            <trkpt lon="99.643737" lat="13.417431">
                <ele>82.810791</ele>
                <time>2012-08-26T04:34:14Z</time>
            </trkpt>
            <trkpt lon="99.648256" lat="13.424517">
                <ele>82.330078</ele>
                <time>2012-08-26T04:47:21Z</time>
            </trkpt>
            <trkpt lon="99.653025" lat="13.431953">
                <ele>73.197632</ele>
                <time>2012-08-26T04:50:00Z</time>
            </trkpt>
            <trkpt lon="99.653573" lat="13.431732">
                <ele>71.274902</ele>
                <time>2012-08-26T04:50:23Z</time>
            </trkpt>
            <trkpt lon="99.654884" lat="13.430620">
                <ele>75.120239</ele>
                <time>2012-08-26T04:50:56Z</time>
            </trkpt>
            <trkpt lon="99.655125" lat="13.430401">
                <ele>74.158813</ele>
                <time>2012-08-26T04:51:02Z</time>
            </trkpt>
            <trkpt lon="99.655648" lat="13.430518">
                <ele>73.197632</ele>
                <time>2012-08-26T04:51:13Z</time>
            </trkpt>
            <trkpt lon="99.656266" lat="13.430122">
                <ele>73.678223</ele>
                <time>2012-08-26T04:51:27Z</time>
            </trkpt>
            <trkpt lon="99.657151" lat="13.430084">
                <ele>73.678223</ele>
                <time>2012-08-26T04:52:25Z</time>
            </trkpt>
            <trkpt lon="99.656916" lat="13.430099">
                <ele>72.716919</ele>
                <time>2012-08-26T04:52:36Z</time>
            </trkpt>
            <trkpt lon="99.656923" lat="13.430339">
                <ele>73.197632</ele>
                <time>2012-08-26T04:52:45Z</time>
            </trkpt>
            <trkpt lon="99.657297" lat="13.430334">
                <ele>72.716919</ele>
                <time>2012-08-26T04:52:56Z</time>
            </trkpt>
            <trkpt lon="99.657370" lat="13.430510">
                <ele>73.197632</ele>
                <time>2012-08-26T04:53:02Z</time>
            </trkpt>
            <trkpt lon="99.657415" lat="13.430783">
                <ele>72.716919</ele>
                <time>2012-08-26T04:53:10Z</time>
            </trkpt>
            <trkpt lon="99.657573" lat="13.430854">
                <ele>72.716919</ele>
                <time>2012-08-26T04:53:14Z</time>
            </trkpt>
            <trkpt lon="99.658356" lat="13.430826">
                <ele>71.274902</ele>
                <time>2012-08-26T04:53:30Z</time>
            </trkpt>
            <trkpt lon="99.658634" lat="13.430724">
                <ele>71.274902</ele>
                <time>2012-08-26T04:53:38Z</time>
            </trkpt>
            <trkpt lon="99.658614" lat="13.430522">
                <ele>72.236206</ele>
                <time>2012-08-26T04:53:45Z</time>
            </trkpt>
            <trkpt lon="99.659212" lat="13.430425">
                <ele>70.313477</ele>
                <time>2012-08-26T04:53:57Z</time>
            </trkpt>
            <trkpt lon="99.659899" lat="13.431188">
                <ele>72.236206</ele>
                <time>2012-08-26T04:54:16Z</time>
            </trkpt>
            <trkpt lon="99.660341" lat="13.431744">
                <ele>69.832886</ele>
                <time>2012-08-26T04:54:29Z</time>
            </trkpt>
            <trkpt lon="99.660669" lat="13.431920">
                <ele>69.832886</ele>
                <time>2012-08-26T04:54:36Z</time>
            </trkpt>
            <trkpt lon="99.661103" lat="13.431959">
                <ele>68.871582</ele>
                <time>2012-08-26T04:54:44Z</time>
            </trkpt>
            <trkpt lon="99.661582" lat="13.431780">
                <ele>68.390869</ele>
                <time>2012-08-26T04:54:54Z</time>
            </trkpt>
            <trkpt lon="99.661755" lat="13.432022">
                <ele>69.352295</ele>
                <time>2012-08-26T04:55:01Z</time>
            </trkpt>
            <trkpt lon="99.662068" lat="13.432217">
                <ele>68.871582</ele>
                <time>2012-08-26T04:55:10Z</time>
            </trkpt>
            <trkpt lon="99.663331" lat="13.431905">
                <ele>69.352295</ele>
                <time>2012-08-26T04:55:37Z</time>
            </trkpt>
            <trkpt lon="99.663372" lat="13.431899">
                <ele>68.871582</ele>
                <time>2012-08-26T04:55:38Z</time>
            </trkpt>
            <trkpt lon="99.663686" lat="13.432020">
                <ele>68.390869</ele>
                <time>2012-08-26T04:55:46Z</time>
            </trkpt>
            <trkpt lon="99.664253" lat="13.432756">
                <ele>68.871582</ele>
                <time>2012-08-26T04:56:04Z</time>
            </trkpt>
            <trkpt lon="99.664687" lat="13.433305">
                <ele>67.429688</ele>
                <time>2012-08-26T04:56:16Z</time>
            </trkpt>
            <trkpt lon="99.664972" lat="13.433418">
                <ele>67.910278</ele>
                <time>2012-08-26T04:56:21Z</time>
            </trkpt>
            <trkpt lon="99.666523" lat="13.433433">
                <ele>67.910278</ele>
                <time>2012-08-26T04:56:46Z</time>
            </trkpt>
            <trkpt lon="99.666635" lat="13.433610">
                <ele>67.429688</ele>
                <time>2012-08-26T04:56:51Z</time>
            </trkpt>
            <trkpt lon="99.666352" lat="13.437589">
                <ele>66.468262</ele>
                <time>2012-08-26T04:58:04Z</time>
            </trkpt>
            <trkpt lon="99.666297" lat="13.438321">
                <ele>64.065063</ele>
                <time>2012-08-26T04:58:19Z</time>
            </trkpt>
            <trkpt lon="99.666071" lat="13.440916">
                <ele>60.219727</ele>
                <time>2012-08-26T04:59:15Z</time>
            </trkpt>
            <trkpt lon="99.665350" lat="13.440859">
                <ele>62.622925</ele>
                <time>2012-08-26T04:59:35Z</time>
            </trkpt>
            <trkpt lon="99.665256" lat="13.440582">
                <ele>66.468262</ele>
                <time>2012-08-26T04:59:47Z</time>
            </trkpt>
            <trkpt lon="99.664735" lat="13.440356">
                <ele>66.948975</ele>
                <time>2012-08-26T05:00:05Z</time>
            </trkpt>
            <trkpt lon="99.664165" lat="13.440121">
                <ele>65.987671</ele>
                <time>2012-08-26T05:00:30Z</time>
            </trkpt>
            <trkpt lon="99.663511" lat="13.442506">
                <ele>63.584351</ele>
                <time>2012-08-26T05:01:35Z</time>
            </trkpt>
            <trkpt lon="99.662154" lat="13.442370">
                <ele>65.026367</ele>
                <time>2012-08-26T05:02:12Z</time>
            </trkpt>
            <trkpt lon="99.661591" lat="13.443466">
                <ele>63.103638</ele>
                <time>2012-08-26T05:02:47Z</time>
            </trkpt>
            <trkpt lon="99.660891" lat="13.443352">
                <ele>61.661743</ele>
                <time>2012-08-26T05:03:10Z</time>
            </trkpt>
            <trkpt lon="99.660625" lat="13.444577">
                <ele>62.142334</ele>
                <time>2012-08-26T05:04:01Z</time>
            </trkpt>
            <trkpt lon="99.661810" lat="13.446392">
                <ele>60.700317</ele>
                <time>2012-08-26T05:04:57Z</time>
            </trkpt>
            <trkpt lon="99.662001" lat="13.446896">
                <ele>61.181030</ele>
                <time>2012-08-26T05:05:15Z</time>
            </trkpt>
            <trkpt lon="99.661103" lat="13.447114">
                <ele>62.142334</ele>
                <time>2012-08-26T05:05:38Z</time>
            </trkpt>
            <trkpt lon="99.660189" lat="13.447151">
                <ele>62.622925</ele>
                <time>2012-08-26T05:05:56Z</time>
            </trkpt>
            <trkpt lon="99.658094" lat="13.447009">
                <ele>63.584351</ele>
                <time>2012-08-26T05:06:37Z</time>
            </trkpt>
            <trkpt lon="99.656346" lat="13.447386">
                <ele>64.065063</ele>
                <time>2012-08-26T05:07:12Z</time>
            </trkpt>
            <trkpt lon="99.655708" lat="13.447963">
                <ele>64.065063</ele>
                <time>2012-08-26T05:07:32Z</time>
            </trkpt>
            <trkpt lon="99.655438" lat="13.451374">
                <ele>65.507080</ele>
                <time>2012-08-26T05:19:43Z</time>
            </trkpt>
            <trkpt lon="99.655391" lat="13.452079">
                <ele>63.584351</ele>
                <time>2012-08-26T05:20:00Z</time>
            </trkpt>
            <trkpt lon="99.654078" lat="13.452174">
                <ele>61.661743</ele>
                <time>2012-08-26T05:20:39Z</time>
            </trkpt>
            <trkpt lon="99.651934" lat="13.451584">
                <ele>62.142334</ele>
                <time>2012-08-26T05:21:37Z</time>
            </trkpt>
            <trkpt lon="99.649766" lat="13.450783">
                <ele>65.026367</ele>
                <time>2012-08-26T05:22:46Z</time>
            </trkpt>
            <trkpt lon="99.649435" lat="13.450694">
                <ele>65.026367</ele>
                <time>2012-08-26T05:23:00Z</time>
            </trkpt>
            <trkpt lon="99.648459" lat="13.450674">
                <ele>65.026367</ele>
                <time>2012-08-26T05:23:29Z</time>
            </trkpt>
            <trkpt lon="99.648016" lat="13.450775">
                <ele>65.507080</ele>
                <time>2012-08-26T05:23:43Z</time>
            </trkpt>
            <trkpt lon="99.647622" lat="13.451755">
                <ele>65.026367</ele>
                <time>2012-08-26T05:24:13Z</time>
            </trkpt>
            <trkpt lon="99.647423" lat="13.452183">
                <ele>64.065063</ele>
                <time>2012-08-26T05:24:29Z</time>
            </trkpt>
            <trkpt lon="99.646497" lat="13.451755">
                <ele>65.507080</ele>
                <time>2012-08-26T05:25:01Z</time>
            </trkpt>
            <trkpt lon="99.645187" lat="13.452276">
                <ele>69.352295</ele>
                <time>2012-08-26T05:25:53Z</time>
            </trkpt>
            <trkpt lon="99.644305" lat="13.452711">
                <ele>70.794190</ele>
                <time>2012-08-26T05:26:21Z</time>
            </trkpt>
            <trkpt lon="99.643592" lat="13.452971">
                <ele>68.871582</ele>
                <time>2012-08-26T05:26:47Z</time>
            </trkpt>
            <trkpt lon="99.642825" lat="13.452998">
                <ele>72.236206</ele>
                <time>2012-08-26T05:27:13Z</time>
            </trkpt>
            <trkpt lon="99.641702" lat="13.453279">
                <ele>75.120239</ele>
                <time>2012-08-26T05:28:00Z</time>
            </trkpt>
            <trkpt lon="99.640815" lat="13.453368">
                <ele>73.678223</ele>
                <time>2012-08-26T05:28:32Z</time>
            </trkpt>
            <trkpt lon="99.639950" lat="13.453182">
                <ele>73.197632</ele>
                <time>2012-08-26T05:29:05Z</time>
            </trkpt>
            <trkpt lon="99.639175" lat="13.453146">
                <ele>70.794190</ele>
                <time>2012-08-26T05:29:37Z</time>
            </trkpt>
            <trkpt lon="99.638612" lat="13.453630">
                <ele>69.352295</ele>
                <time>2012-08-26T05:30:13Z</time>
            </trkpt>
            <trkpt lon="99.638330" lat="13.453667">
                <ele>69.832886</ele>
                <time>2012-08-26T05:30:23Z</time>
            </trkpt>
            <trkpt lon="99.636414" lat="13.453069">
                <ele>72.236206</ele>
                <time>2012-08-26T05:31:33Z</time>
            </trkpt>
            <trkpt lon="99.635195" lat="13.455621">
                <ele>77.523438</ele>
                <time>2012-08-26T05:32:46Z</time>
            </trkpt>
            <trkpt lon="99.634883" lat="13.455680">
                <ele>78.004028</ele>
                <time>2012-08-26T05:32:54Z</time>
            </trkpt>
            <trkpt lon="99.633038" lat="13.454895">
                <ele>87.136597</ele>
                <time>2012-08-26T05:33:48Z</time>
            </trkpt>
            <trkpt lon="99.631399" lat="13.454457">
                <ele>88.098022</ele>
                <time>2012-08-26T05:34:26Z</time>
            </trkpt>
            <trkpt lon="99.631156" lat="13.454417">
                <ele>88.098022</ele>
                <time>2012-08-26T05:34:31Z</time>
            </trkpt>
            <trkpt lon="99.630520" lat="13.454642">
                <ele>86.175293</ele>
                <time>2012-08-26T05:34:44Z</time>
            </trkpt>
            <trkpt lon="99.630144" lat="13.454920">
                <ele>86.175293</ele>
                <time>2012-08-26T05:34:53Z</time>
            </trkpt>
            <trkpt lon="99.629844" lat="13.454940">
                <ele>87.136597</ele>
                <time>2012-08-26T05:35:00Z</time>
            </trkpt>
            <trkpt lon="99.627877" lat="13.454343">
                <ele>94.346558</ele>
                <time>2012-08-26T05:35:59Z</time>
            </trkpt>
            <trkpt lon="99.627415" lat="13.454274">
                <ele>94.346558</ele>
                <time>2012-08-26T05:36:11Z</time>
            </trkpt>
            <trkpt lon="99.627316" lat="13.454471">
                <ele>93.865845</ele>
                <time>2012-08-26T05:36:16Z</time>
            </trkpt>
            <trkpt lon="99.625625" lat="13.459427">
                <ele>87.136597</ele>
                <time>2012-08-26T05:37:41Z</time>
            </trkpt>
            <trkpt lon="99.625440" lat="13.460140">
                <ele>88.578735</ele>
                <time>2012-08-26T05:37:57Z</time>
            </trkpt>
            <trkpt lon="99.625577" lat="13.460268">
                <ele>88.578735</ele>
                <time>2012-08-26T05:38:04Z</time>
            </trkpt>
            <trkpt lon="99.625709" lat="13.459939">
                <ele>90.981934</ele>
                <time>2012-08-26T05:38:54Z</time>
            </trkpt>
        </trkseg>
    </trk>
</gpx>